Time,TemperatureF,DewpointF,PressureIn,WindDirection,WindDirectionDegrees,WindSpeedMPH,WindSpeedGustMPH,Humidity,HourlyPrecipIn,Conditions,Clouds,dailyrainin,SoftwareType,DateUTC
2013-04-14 00:00:00,71.9,65.4,29.99,NW,325,0.0,0.0,80,0.00,,,0.00,Wunderground v.1.15,2013-04-14 04:00:00,
2013-04-14 00:02:00,71.9,65.4,29.99,NW,325,0.0,1.0,80,0.00,,,0.00,Wunderground v.1.15,2013-04-14 04:02:00,
2013-04-14 00:03:00,71.9,65.4,29.99,NW,325,0.0,1.0,80,0.00,,,0.00,Wunderground v.1.15,2013-04-14 04:03:00,
2013-04-14 00:09:00,71.9,65.4,29.99,NW,325,0.0,1.0,80,0.00,,,0.00,Wunderground v.1.15,2013-04-14 04:09:00,
2013-04-14 00:10:00,71.9,65.4,29.99,NW,325,0.0,0.0,80,0.00,,,0.00,Wunderground v.1.15,2013-04-14 04:10:00,
2013-04-14 00:15:00,71.9,65.4,29.99,North,9,0.0,1.0,80,0.00,,,0.00,Wunderground v.1.15,2013-04-14 04:15:00,
2013-04-14 00:20:00,71.9,65.4,29.99,NNE,24,0.0,2.0,80,0.00,,,0.00,Wunderground v.1.15,2013-04-14 04:20:00,
2013-04-14 00:25:00,72.0,64.8,29.99,ENE,57,0.0,2.0,78,0.00,,,0.00,Wunderground v.1.15,2013-04-14 04:25:00,
2013-04-14 00:31:00,72.0,64.8,29.98,NE,56,0.0,0.0,78,0.00,,,0.00,Wunderground v.1.15,2013-04-14 04:31:00,
2013-04-14 00:37:00,72.0,64.8,29.98,NE,56,0.0,0.0,78,0.00,,,0.00,Wunderground v.1.15,2013-04-14 04:37:00,
2013-04-14 00:42:00,72.0,64.4,29.98,NE,56,0.0,0.0,77,0.00,,,0.00,Wunderground v.1.15,2013-04-14 04:42:00,
2013-04-14 00:48:00,72.0,64.0,29.98,ENE,78,0.0,0.0,76,0.00,,,0.00,Wunderground v.1.15,2013-04-14 04:48:00,
2013-04-14 00:53:00,72.0,63.6,29.98,ENE,78,0.0,0.0,75,0.00,,,0.00,Wunderground v.1.15,2013-04-14 04:53:00,
2013-04-14 00:58:00,71.9,62.8,29.98,ENE,76,0.0,0.0,73,0.00,,,0.00,Wunderground v.1.15,2013-04-14 04:58:00,
2013-04-14 01:04:00,71.8,61.9,29.98,ENE,71,0.0,0.0,71,0.00,,,0.00,Wunderground v.1.15,2013-04-14 05:04:00,
2013-04-14 01:09:00,71.7,61.8,29.98,ENE,71,0.0,0.0,71,0.00,,,0.00,Wunderground v.1.15,2013-04-14 05:09:00,
2013-04-14 01:15:00,71.7,61.8,29.98,ENE,71,0.0,0.0,71,0.00,,,0.00,Wunderground v.1.15,2013-04-14 05:15:00,
2013-04-14 01:20:00,71.6,61.3,29.98,ENE,64,0.0,0.0,70,0.00,,,0.00,Wunderground v.1.15,2013-04-14 05:20:00,
2013-04-14 01:25:00,71.6,61.3,29.98,ENE,64,0.0,0.0,70,0.00,,,0.00,Wunderground v.1.15,2013-04-14 05:25:00,
2013-04-14 01:31:00,71.5,61.2,29.98,ENE,64,0.0,0.0,70,0.00,,,0.00,Wunderground v.1.15,2013-04-14 05:31:00,
2013-04-14 01:37:00,71.3,61.0,29.98,ENE,64,0.0,0.0,70,0.00,,,0.00,Wunderground v.1.15,2013-04-14 05:37:00,
2013-04-14 01:43:00,71.2,60.9,29.98,ENE,64,0.0,0.0,70,0.00,,,0.00,Wunderground v.1.15,2013-04-14 05:43:00,
2013-04-14 01:48:00,71.1,60.8,29.98,ENE,64,0.0,0.0,70,0.00,,,0.00,Wunderground v.1.15,2013-04-14 05:48:00,
2013-04-14 01:53:00,71.0,61.1,29.98,ENE,64,0.0,0.0,71,0.00,,,0.00,Wunderground v.1.15,2013-04-14 05:53:00,
2013-04-14 01:59:00,71.1,62.0,29.98,ENE,64,0.0,0.0,73,0.00,,,0.00,Wunderground v.1.15,2013-04-14 05:59:00,
2013-04-14 02:05:00,71.2,63.2,29.98,ENE,63,0.0,0.0,76,0.00,,,0.00,Wunderground v.1.15,2013-04-14 06:05:00,
2013-04-14 02:12:00,71.5,65.4,29.98,East,79,0.0,0.0,81,0.00,,,0.00,Wunderground v.1.15,2013-04-14 06:12:00,
2013-04-14 02:18:00,71.7,65.6,29.98,East,82,0.0,0.0,81,0.00,,,0.00,Wunderground v.1.15,2013-04-14 06:18:00,
2013-04-14 02:23:00,71.7,65.9,29.97,East,82,0.0,0.0,82,0.00,,,0.00,Wunderground v.1.15,2013-04-14 06:23:00,
2013-04-14 02:29:00,71.7,65.9,29.97,East,82,0.0,0.0,82,0.00,,,0.00,Wunderground v.1.15,2013-04-14 06:29:00,
2013-04-14 02:34:00,71.7,65.9,29.97,East,82,0.0,0.0,82,0.00,,,0.00,Wunderground v.1.15,2013-04-14 06:34:00,
2013-04-14 02:40:00,71.7,65.9,29.96,East,82,0.0,0.0,82,0.00,,,0.00,Wunderground v.1.15,2013-04-14 06:40:00,
2013-04-14 02:45:00,71.6,65.8,29.96,East,82,0.0,1.0,82,0.00,,,0.00,Wunderground v.1.15,2013-04-14 06:45:00,
2013-04-14 02:50:00,71.6,65.8,29.96,ESE,107,0.0,0.0,82,0.00,,,0.00,Wunderground v.1.15,2013-04-14 06:50:00,
2013-04-14 02:55:00,71.5,66.1,29.96,ESE,106,0.0,0.0,83,0.00,,,0.00,Wunderground v.1.15,2013-04-14 06:55:00,
2013-04-14 03:01:00,71.5,66.1,29.96,ESE,106,0.0,0.0,83,0.00,,,0.00,Wunderground v.1.15,2013-04-14 07:01:00,
2013-04-14 03:06:00,71.4,66.0,29.96,ESE,103,0.0,0.0,83,0.00,,,0.00,Wunderground v.1.15,2013-04-14 07:06:00,
2013-04-14 03:11:00,71.4,66.0,29.96,ESE,110,0.0,0.0,83,0.00,,,0.00,Wunderground v.1.15,2013-04-14 07:11:00,
2013-04-14 03:17:00,71.4,66.3,29.96,ESE,110,0.0,0.0,84,0.00,,,0.00,Wunderground v.1.15,2013-04-14 07:17:00,
2013-04-14 03:23:00,71.4,66.3,29.96,ESE,110,0.0,3.0,84,0.00,,,0.00,Wunderground v.1.15,2013-04-14 07:23:00,
2013-04-14 03:29:00,71.3,65.9,29.95,SE,138,0.0,3.0,83,0.00,,,0.00,Wunderground v.1.15,2013-04-14 07:29:00,
2013-04-14 03:34:00,71.3,66.2,29.95,SE,136,0.0,0.0,84,0.00,,,0.00,Wunderground v.1.15,2013-04-14 07:34:00,
2013-04-14 03:40:00,71.3,66.2,29.95,SE,128,0.0,3.0,84,0.00,,,0.00,Wunderground v.1.15,2013-04-14 07:40:00,
2013-04-14 03:46:00,71.3,66.2,29.94,SE,126,0.0,3.0,84,0.00,,,0.00,Wunderground v.1.15,2013-04-14 07:46:00,
2013-04-14 03:52:00,71.3,66.2,29.94,ESE,107,0.0,0.0,84,0.00,,,0.00,Wunderground v.1.15,2013-04-14 07:52:00,
2013-04-14 03:57:00,71.3,66.2,29.94,SE,130,0.0,1.0,84,0.00,,,0.00,Wunderground v.1.15,2013-04-14 07:57:00,
2013-04-14 04:02:00,71.3,66.6,29.93,ESE,109,0.0,1.0,85,0.00,,,0.00,Wunderground v.1.15,2013-04-14 08:02:00,
2013-04-14 04:08:00,71.2,66.5,29.93,ESE,110,0.0,1.0,85,0.00,,,0.00,Wunderground v.1.15,2013-04-14 08:08:00,
2013-04-14 04:14:00,71.2,66.8,29.93,ESE,116,0.0,2.0,86,0.00,,,0.00,Wunderground v.1.15,2013-04-14 08:14:00,
2013-04-14 04:19:00,71.2,66.8,29.93,ESE,117,0.0,2.0,86,0.00,,,0.00,Wunderground v.1.15,2013-04-14 08:19:00,
2013-04-14 04:24:00,71.3,66.9,29.93,ESE,115,0.0,0.0,86,0.00,,,0.00,Wunderground v.1.15,2013-04-14 08:24:00,
2013-04-14 04:29:00,71.3,66.9,29.94,East,94,1.0,3.0,86,0.00,,,0.00,Wunderground v.1.15,2013-04-14 08:29:00,
2013-04-14 04:34:00,71.3,66.9,29.93,ESE,111,1.0,1.0,86,0.00,,,0.00,Wunderground v.1.15,2013-04-14 08:34:00,
2013-04-14 04:40:00,71.3,66.9,29.93,ESE,114,0.0,0.0,86,0.00,,,0.00,Wunderground v.1.15,2013-04-14 08:40:00,
2013-04-14 04:45:00,71.3,67.2,29.93,ESE,113,0.0,0.0,87,0.00,,,0.00,Wunderground v.1.15,2013-04-14 08:45:00,
2013-04-14 04:51:00,71.3,67.2,29.93,ESE,123,0.0,0.0,87,0.00,,,0.00,Wunderground v.1.15,2013-04-14 08:51:00,
2013-04-14 04:56:00,71.3,67.2,29.92,ESE,109,0.0,0.0,87,0.00,,,0.00,Wunderground v.1.15,2013-04-14 08:56:00,
2013-04-14 05:02:00,71.4,67.7,29.93,ESE,117,0.0,3.0,88,0.00,,,0.00,Wunderground v.1.15,2013-04-14 09:02:00,
2013-04-14 05:08:00,71.4,67.3,29.92,SSE,159,0.0,3.0,87,0.00,,,0.00,Wunderground v.1.15,2013-04-14 09:08:00,
2013-04-14 05:13:00,71.5,67.4,29.92,SE,136,0.0,2.0,87,0.00,,,0.00,Wunderground v.1.15,2013-04-14 09:13:00,
2013-04-14 05:18:00,71.5,67.4,29.92,SE,128,1.0,2.0,87,0.00,,,0.00,Wunderground v.1.15,2013-04-14 09:18:00,
2013-04-14 05:24:00,71.5,67.4,29.92,SE,130,0.0,1.0,87,0.00,,,0.00,Wunderground v.1.15,2013-04-14 09:24:00,
2013-04-14 05:29:00,71.5,67.4,29.92,SE,141,0.0,3.0,87,0.00,,,0.00,Wunderground v.1.15,2013-04-14 09:29:00,
2013-04-14 05:35:00,71.4,67.7,29.92,ESE,120,0.0,0.0,88,0.00,,,0.00,Wunderground v.1.15,2013-04-14 09:35:00,
2013-04-14 05:40:00,71.4,67.7,29.92,SE,128,0.0,0.0,88,0.00,,,0.00,Wunderground v.1.15,2013-04-14 09:40:00,
2013-04-14 05:45:00,71.4,67.7,29.92,SE,128,0.0,1.0,88,0.00,,,0.00,Wunderground v.1.15,2013-04-14 09:45:00,
2013-04-14 05:50:00,71.4,67.7,29.93,SE,130,0.0,4.0,88,0.00,,,0.00,Wunderground v.1.15,2013-04-14 09:50:00,
2013-04-14 05:57:00,71.5,67.8,29.93,SE,129,0.0,4.0,88,0.00,,,0.00,Wunderground v.1.15,2013-04-14 09:57:00,
2013-04-14 06:03:00,71.5,67.8,29.93,ESE,109,0.0,5.0,88,0.00,,,0.00,Wunderground v.1.15,2013-04-14 10:03:00,
2013-04-14 06:08:00,71.5,67.8,29.93,ESE,118,0.0,5.0,88,0.00,,,0.00,Wunderground v.1.15,2013-04-14 10:08:00,
2013-04-14 06:13:00,71.5,67.8,29.93,ESE,122,0.0,1.0,88,0.00,,,0.00,Wunderground v.1.15,2013-04-14 10:13:00,
2013-04-14 06:18:00,71.5,67.8,29.93,ESE,117,0.0,1.0,88,0.00,,,0.00,Wunderground v.1.15,2013-04-14 10:18:00,
2013-04-14 06:24:00,71.6,68.2,29.94,ESE,116,0.0,0.0,89,0.00,,,0.00,Wunderground v.1.15,2013-04-14 10:24:00,
2013-04-14 06:29:00,71.6,68.2,29.94,ESE,116,0.0,0.0,89,0.00,,,0.00,Wunderground v.1.15,2013-04-14 10:29:00,
2013-04-14 06:34:00,71.6,68.2,29.94,ESE,115,0.0,0.0,89,0.00,,,0.00,Wunderground v.1.15,2013-04-14 10:34:00,
2013-04-14 06:40:00,71.6,68.2,29.93,ESE,107,0.0,0.0,89,0.00,,,0.00,Wunderground v.1.15,2013-04-14 10:40:00,
2013-04-14 06:45:00,71.7,68.3,29.93,South,184,0.0,6.0,89,0.00,,,0.00,Wunderground v.1.15,2013-04-14 10:45:00,
2013-04-14 06:50:00,71.8,68.7,29.93,East,99,0.0,0.0,90,0.00,,,0.00,Wunderground v.1.15,2013-04-14 10:50:00,
2013-04-14 06:56:00,71.8,68.7,29.93,East,96,0.0,0.0,90,0.00,,,0.00,Wunderground v.1.15,2013-04-14 10:56:00,
2013-04-14 07:02:00,71.9,68.8,29.93,SE,129,0.0,4.0,90,0.00,,,0.00,Wunderground v.1.15,2013-04-14 11:02:00,
2013-04-14 07:08:00,71.9,68.8,29.92,ESE,109,0.0,4.0,90,0.00,,,0.00,Wunderground v.1.15,2013-04-14 11:08:00,
2013-04-14 07:13:00,71.9,68.8,29.92,ESE,121,0.0,0.0,90,0.00,,,0.00,Wunderground v.1.15,2013-04-14 11:13:00,
2013-04-14 07:18:00,71.9,68.8,29.92,SSE,150,1.0,4.0,90,0.00,,,0.00,Wunderground v.1.15,2013-04-14 11:18:00,
2013-04-14 07:23:00,71.9,69.1,29.93,SE,136,1.0,1.0,91,0.00,,,0.00,Wunderground v.1.15,2013-04-14 11:23:00,
2013-04-14 07:29:00,71.9,69.1,29.93,ESE,105,0.0,1.0,91,0.00,,,0.00,Wunderground v.1.15,2013-04-14 11:29:00,
2013-04-14 07:34:00,71.9,69.1,29.93,ESE,117,0.0,4.0,91,0.00,,,0.00,Wunderground v.1.15,2013-04-14 11:34:00,
2013-04-14 07:39:00,72.0,69.2,29.93,East,88,0.0,4.0,91,0.00,,,0.00,Wunderground v.1.15,2013-04-14 11:39:00,
2013-04-14 07:45:00,72.0,69.2,29.93,ESE,103,1.0,7.0,91,0.00,,,0.00,Wunderground v.1.15,2013-04-14 11:45:00,
2013-04-14 07:50:00,72.0,69.2,29.93,East,101,1.0,1.0,91,0.00,,,0.00,Wunderground v.1.15,2013-04-14 11:50:00,
2013-04-14 07:55:00,72.1,69.3,29.93,ESE,102,0.0,4.0,91,0.00,,,0.00,Wunderground v.1.15,2013-04-14 11:55:00,
2013-04-14 08:01:00,72.1,69.3,29.93,SSE,161,1.0,5.0,91,0.00,,,0.00,Wunderground v.1.15,2013-04-14 12:01:00,
2013-04-14 08:07:00,72.1,69.3,29.94,SE,124,0.0,5.0,91,0.00,,,0.00,Wunderground v.1.15,2013-04-14 12:07:00,
2013-04-14 08:12:00,72.1,69.0,29.94,ESE,106,0.0,0.0,90,0.00,,,0.00,Wunderground v.1.15,2013-04-14 12:12:00,
2013-04-14 08:18:00,72.2,69.1,29.94,ESE,121,0.0,0.0,90,0.00,,,0.00,Wunderground v.1.15,2013-04-14 12:18:00,
2013-04-14 08:23:00,72.3,69.2,29.94,SE,139,0.0,0.0,90,0.00,,,0.00,Wunderground v.1.15,2013-04-14 12:23:00,
2013-04-14 08:28:00,72.4,69.3,29.94,East,82,0.0,6.0,90,0.00,,,0.00,Wunderground v.1.15,2013-04-14 12:28:00,
2013-04-14 08:33:00,72.6,69.5,29.94,ESE,111,0.0,0.0,90,0.00,,,0.00,Wunderground v.1.15,2013-04-14 12:33:00,
2013-04-14 08:39:00,72.8,69.7,29.94,ESE,104,0.0,0.0,90,0.00,,,0.00,Wunderground v.1.15,2013-04-14 12:39:00,
2013-04-14 08:44:00,73.0,69.9,29.94,SE,130,0.0,2.0,90,0.00,,,0.00,Wunderground v.1.15,2013-04-14 12:44:00,
2013-04-14 08:49:00,73.1,69.7,29.95,East,96,1.0,2.0,89,0.00,,,0.00,Wunderground v.1.15,2013-04-14 12:49:00,
2013-04-14 08:54:00,73.2,69.8,29.95,East,95,1.0,1.0,89,0.00,,,0.00,Wunderground v.1.15,2013-04-14 12:54:00,
2013-04-14 09:00:00,73.3,69.9,29.95,South,176,0.0,0.0,89,0.00,,,0.00,Wunderground v.1.15,2013-04-14 13:00:00,
2013-04-14 09:05:00,73.5,70.1,29.95,East,94,0.0,7.0,89,0.00,,,0.00,Wunderground v.1.15,2013-04-14 13:05:00,
2013-04-14 09:12:00,73.7,70.3,29.96,SE,134,0.0,0.0,89,0.00,,,0.00,Wunderground v.1.15,2013-04-14 13:12:00,
2013-04-14 09:17:00,74.0,70.2,29.96,ESE,119,0.0,0.0,88,0.00,,,0.00,Wunderground v.1.15,2013-04-14 13:17:00,
2013-04-14 09:22:00,74.4,70.6,29.96,ESE,118,0.0,0.0,88,0.00,,,0.00,Wunderground v.1.15,2013-04-14 13:22:00,
2013-04-14 09:27:00,74.9,70.8,29.96,ESE,115,0.0,0.0,87,0.00,,,0.00,Wunderground v.1.15,2013-04-14 13:27:00,
2013-04-14 09:33:00,75.3,70.8,29.96,SE,129,0.0,0.0,86,0.00,,,0.00,Wunderground v.1.15,2013-04-14 13:33:00,
2013-04-14 09:38:00,75.6,70.8,29.96,East,91,0.0,0.0,85,0.00,,,0.00,Wunderground v.1.15,2013-04-14 13:38:00,
2013-04-14 09:44:00,76.0,71.2,29.97,East,91,0.0,0.0,85,0.00,,,0.00,Wunderground v.1.15,2013-04-14 13:44:00,
2013-04-14 09:49:00,76.3,71.1,29.97,East,91,0.0,0.0,84,0.00,,,0.00,Wunderground v.1.15,2013-04-14 13:49:00,
2013-04-14 09:54:00,76.6,71.4,29.97,East,96,0.0,2.0,84,0.00,,,0.00,Wunderground v.1.15,2013-04-14 13:54:00,
2013-04-14 09:59:00,77.0,71.4,29.97,East,96,0.0,2.0,83,0.00,,,0.00,Wunderground v.1.15,2013-04-14 13:59:00,
2013-04-14 10:05:00,77.5,71.6,29.97,East,96,0.0,3.0,82,0.00,,,0.00,Wunderground v.1.15,2013-04-14 14:05:00,
2013-04-14 10:11:00,77.7,71.4,29.97,ESE,105,0.0,2.0,81,0.00,,,0.00,Wunderground v.1.15,2013-04-14 14:11:00,
2013-04-14 10:16:00,77.7,71.4,29.97,ESE,104,0.0,2.0,81,0.00,,,0.00,Wunderground v.1.15,2013-04-14 14:16:00,
2013-04-14 10:22:00,77.9,71.6,29.97,ESE,106,0.0,0.0,81,0.00,,,0.00,Wunderground v.1.15,2013-04-14 14:22:00,
2013-04-14 10:27:00,78.2,71.5,29.97,ESE,107,0.0,3.0,80,0.00,,,0.00,Wunderground v.1.15,2013-04-14 14:27:00,
2013-04-14 10:33:00,78.3,71.6,29.97,ESE,108,0.0,0.0,80,0.00,,,0.00,Wunderground v.1.15,2013-04-14 14:33:00,
2013-04-14 10:38:00,78.5,71.4,29.98,ESE,110,0.0,0.0,79,0.00,,,0.00,Wunderground v.1.15,2013-04-14 14:38:00,
2013-04-14 10:43:00,78.7,71.6,29.97,ESE,110,0.0,0.0,79,0.00,,,0.00,Wunderground v.1.15,2013-04-14 14:43:00,
2013-04-14 10:48:00,78.9,71.8,29.97,ESE,111,0.0,1.0,79,0.00,,,0.00,Wunderground v.1.15,2013-04-14 14:48:00,
2013-04-14 10:54:00,78.7,71.3,29.97,ESE,117,0.0,0.0,78,0.00,,,0.00,Wunderground v.1.15,2013-04-14 14:54:00,
2013-04-14 10:59:00,78.8,71.7,29.96,ESE,117,0.0,0.0,79,0.00,,,0.00,Wunderground v.1.15,2013-04-14 14:59:00,
2013-04-14 11:04:00,78.8,71.7,29.97,SE,125,0.0,2.0,79,0.00,,,0.00,Wunderground v.1.15,2013-04-14 15:04:00,
2013-04-14 11:10:00,78.7,71.3,29.96,SE,124,0.0,0.0,78,0.00,,,0.00,Wunderground v.1.15,2013-04-14 15:10:00,
2013-04-14 11:15:00,78.7,71.3,29.97,ESE,123,0.0,0.0,78,0.00,,,0.00,Wunderground v.1.15,2013-04-14 15:15:00,
2013-04-14 11:21:00,78.7,71.6,29.97,ESE,119,0.0,0.0,79,0.00,,,0.00,Wunderground v.1.15,2013-04-14 15:21:00,
2013-04-14 11:28:00,78.9,71.8,29.98,ESE,120,0.0,0.0,79,0.00,,,0.00,Wunderground v.1.15,2013-04-14 15:28:00,
2013-04-14 11:33:00,78.9,71.5,29.97,ESE,119,0.0,0.0,78,0.00,,,0.00,Wunderground v.1.15,2013-04-14 15:33:00,
2013-04-14 11:38:00,79.0,71.6,29.97,ESE,120,0.0,0.0,78,0.00,,,0.00,Wunderground v.1.15,2013-04-14 15:38:00,
2013-04-14 11:43:00,79.1,71.6,29.97,ESE,120,0.0,0.0,78,0.00,,,0.00,Wunderground v.1.15,2013-04-14 15:43:00,
2013-04-14 11:49:00,78.9,71.5,29.96,ESE,122,0.0,0.0,78,0.00,,,0.00,Wunderground v.1.15,2013-04-14 15:49:00,
2013-04-14 11:54:00,78.8,71.7,29.94,ESE,122,0.0,0.0,79,0.00,,,0.00,Wunderground v.1.15,2013-04-14 15:54:00,
2013-04-14 12:00:00,78.8,71.7,29.95,ESE,122,0.0,0.0,79,0.00,,,0.00,Wunderground v.1.15,2013-04-14 16:00:00,
2013-04-14 12:05:00,79.0,71.6,29.96,SE,127,0.0,2.0,78,0.00,,,0.00,Wunderground v.1.15,2013-04-14 16:05:00,
2013-04-14 12:11:00,79.1,71.6,29.95,SE,144,0.0,0.0,78,0.00,,,0.00,Wunderground v.1.15,2013-04-14 16:11:00,
2013-04-14 12:17:00,79.6,72.1,29.94,SSE,159,0.0,0.0,78,0.00,,,0.00,Wunderground v.1.15,2013-04-14 16:17:00,
2013-04-14 12:22:00,80.2,72.3,29.95,SE,125,1.0,2.0,77,0.00,,,0.00,Wunderground v.1.15,2013-04-14 16:22:00,
2013-04-14 12:27:00,80.8,72.1,29.95,SE,146,1.0,2.0,75,0.00,,,0.00,Wunderground v.1.15,2013-04-14 16:27:00,
2013-04-14 12:32:00,81.1,72.4,29.95,SSE,150,0.0,5.0,75,0.00,,,0.00,Wunderground v.1.15,2013-04-14 16:32:00,
2013-04-14 12:37:00,81.1,72.0,29.94,South,186,1.0,5.0,74,0.00,,,0.00,Wunderground v.1.15,2013-04-14 16:37:00,
2013-04-14 12:43:00,80.7,72.0,29.94,South,181,3.0,9.0,75,0.00,,,0.00,Wunderground v.1.15,2013-04-14 16:43:00,
2013-04-14 12:48:00,80.7,72.0,29.95,SSE,149,5.0,9.0,75,0.00,,,0.00,Wunderground v.1.15,2013-04-14 16:48:00,
2013-04-14 12:54:00,80.7,72.0,29.94,SSE,167,5.0,6.0,75,0.00,,,0.00,Wunderground v.1.15,2013-04-14 16:54:00,
2013-04-14 13:00:00,80.7,72.0,29.94,South,187,4.0,4.0,75,0.00,,,0.00,Wunderground v.1.15,2013-04-14 17:00:00,
2013-04-14 13:05:00,80.7,72.4,29.94,South,191,3.0,5.0,76,0.00,,,0.00,Wunderground v.1.15,2013-04-14 17:05:00,
2013-04-14 13:11:00,80.7,72.8,29.93,South,188,3.0,4.0,77,0.00,,,0.00,Wunderground v.1.15,2013-04-14 17:11:00,
2013-04-14 13:16:00,81.2,73.3,29.93,SSW,205,4.0,4.0,77,0.00,,,0.00,Wunderground v.1.15,2013-04-14 17:16:00,
2013-04-14 13:22:00,81.8,73.1,29.93,SE,138,5.0,7.0,75,0.00,,,0.00,Wunderground v.1.15,2013-04-14 17:22:00,
2013-04-14 13:27:00,82.0,72.9,29.93,South,186,7.0,16.0,74,0.00,,,0.00,Wunderground v.1.15,2013-04-14 17:27:00,
2013-04-14 13:33:00,82.1,73.0,29.92,SSW,195,6.0,13.0,74,0.00,,,0.00,Wunderground v.1.15,2013-04-14 17:33:00,
2013-04-14 13:38:00,82.3,73.2,29.92,SSE,159,6.0,13.0,74,0.00,,,0.00,Wunderground v.1.15,2013-04-14 17:38:00,
2013-04-14 13:44:00,82.4,73.7,29.92,SSW,202,6.0,19.0,75,0.00,,,0.00,Wunderground v.1.15,2013-04-14 17:44:00,
2013-04-14 13:49:00,82.7,73.2,29.92,SSE,166,4.0,19.0,73,0.00,,,0.00,Wunderground v.1.15,2013-04-14 17:49:00,
2013-04-14 13:55:00,82.2,73.1,29.92,South,186,4.0,13.0,74,0.00,,,0.00,Wunderground v.1.15,2013-04-14 17:55:00,
2013-04-14 14:00:00,81.7,73.0,29.92,SSW,210,5.0,5.0,75,0.00,,,0.00,Wunderground v.1.15,2013-04-14 18:00:00,
2013-04-14 14:05:00,81.4,73.5,29.92,SSE,157,3.0,13.0,77,0.00,,,0.00,Wunderground v.1.15,2013-04-14 18:05:00,
2013-04-14 14:12:00,81.7,73.4,29.92,SSW,198,4.0,14.0,76,0.00,,,0.00,Wunderground v.1.15,2013-04-14 18:12:00,
2013-04-14 14:17:00,81.6,73.7,29.92,South,171,5.0,17.0,77,0.00,,,0.00,Wunderground v.1.15,2013-04-14 18:17:00,
2013-04-14 14:23:00,81.6,73.7,29.91,South,180,2.0,4.0,77,0.00,,,0.00,Wunderground v.1.15,2013-04-14 18:23:00,
2013-04-14 14:28:00,81.7,73.8,29.92,SSW,213,1.0,5.0,77,0.00,,,0.00,Wunderground v.1.15,2013-04-14 18:28:00,
2013-04-14 14:33:00,81.7,73.4,29.91,SSW,207,1.0,4.0,76,0.00,,,0.00,Wunderground v.1.15,2013-04-14 18:33:00,
2013-04-14 14:38:00,81.4,73.5,29.91,SSW,203,3.0,11.0,77,0.00,,,0.00,Wunderground v.1.15,2013-04-14 18:38:00,
2013-04-14 14:44:00,81.5,73.2,29.91,SSE,157,4.0,13.0,76,0.00,,,0.00,Wunderground v.1.15,2013-04-14 18:44:00,
2013-04-14 14:50:00,81.9,73.2,29.90,SSW,196,7.0,7.0,75,0.00,,,0.00,Wunderground v.1.15,2013-04-14 18:50:00,
2013-04-14 14:55:00,82.4,72.5,29.90,South,173,7.0,14.0,72,0.00,,,0.00,Wunderground v.1.15,2013-04-14 18:55:00,
2013-04-14 15:02:00,83.3,72.5,29.90,ESE,117,7.0,14.0,70,0.00,,,0.00,Wunderground v.1.15,2013-04-14 19:02:00,
2013-04-14 15:08:00,84.2,72.5,29.89,South,175,5.0,14.0,68,0.00,,,0.00,Wunderground v.1.15,2013-04-14 19:08:00,
2013-04-14 15:13:00,84.1,72.0,29.89,SSW,200,5.0,10.0,67,0.00,,,0.00,Wunderground v.1.15,2013-04-14 19:13:00,
2013-04-14 15:19:00,83.6,71.9,29.88,SSW,207,4.0,10.0,68,0.00,,,0.00,Wunderground v.1.15,2013-04-14 19:19:00,
2013-04-14 15:35:00,82.8,72.0,29.88,SSE,167,5.0,14.0,70,0.00,,,0.00,Wunderground v.1.15,2013-04-14 19:35:00,
2013-04-14 15:40:00,82.9,72.1,29.88,SSE,165,5.0,9.0,70,0.00,,,0.00,Wunderground v.1.15,2013-04-14 19:40:00,
2013-04-14 15:46:00,83.0,72.2,29.88,SSE,153,8.0,18.0,70,0.00,,,0.00,Wunderground v.1.15,2013-04-14 19:46:00,
2013-04-14 15:52:00,83.2,72.4,29.88,SSW,198,6.0,7.0,70,0.00,,,0.00,Wunderground v.1.15,2013-04-14 19:52:00,
2013-04-14 15:58:00,83.6,71.9,29.88,SW,218,4.0,12.0,68,0.00,,,0.00,Wunderground v.1.15,2013-04-14 19:58:00,
2013-04-14 16:03:00,83.6,71.5,29.88,WNW,283,7.0,22.0,67,0.00,,,0.00,Wunderground v.1.15,2013-04-14 20:03:00,
2013-04-14 16:09:00,83.6,71.9,29.88,South,183,8.0,22.0,68,0.00,,,0.00,Wunderground v.1.15,2013-04-14 20:09:00,
2013-04-14 16:14:00,83.9,72.2,29.88,SSW,205,5.0,17.0,68,0.00,,,0.00,Wunderground v.1.15,2013-04-14 20:14:00,
2013-04-14 16:19:00,83.7,71.6,29.88,SSE,163,6.0,17.0,67,0.00,,,0.00,Wunderground v.1.15,2013-04-14 20:19:00,
2013-04-14 16:25:00,83.7,71.6,29.88,SSW,206,6.0,11.0,67,0.00,,,0.00,Wunderground v.1.15,2013-04-14 20:25:00,
2013-04-14 16:30:00,83.6,71.5,29.88,South,188,6.0,6.0,67,0.00,,,0.00,Wunderground v.1.15,2013-04-14 20:30:00,
2013-04-14 16:35:00,83.8,72.1,29.88,South,170,6.0,12.0,68,0.00,,,0.00,Wunderground v.1.15,2013-04-14 20:35:00,
2013-04-14 16:41:00,83.5,72.3,29.88,SW,233,4.0,4.0,69,0.00,,,0.00,Wunderground v.1.15,2013-04-14 20:41:00,
2013-04-14 16:46:00,83.5,72.3,29.88,SSE,166,4.0,4.0,69,0.00,,,0.00,Wunderground v.1.15,2013-04-14 20:46:00,
2013-04-14 16:52:00,83.0,71.8,29.88,South,186,5.0,13.0,69,0.00,,,0.00,Wunderground v.1.15,2013-04-14 20:52:00,
2013-04-14 16:57:00,82.9,71.7,29.89,SSE,165,5.0,13.0,69,0.00,,,0.00,Wunderground v.1.15,2013-04-14 20:57:00,
2013-04-14 17:02:00,83.0,72.2,29.88,SW,224,5.0,17.0,70,0.00,,,0.00,Wunderground v.1.15,2013-04-14 21:02:00,
2013-04-14 17:08:00,82.8,72.0,29.89,SSW,206,4.0,17.0,70,0.00,,,0.00,Wunderground v.1.15,2013-04-14 21:08:00,
2013-04-14 17:13:00,82.7,72.3,29.89,SE,146,4.0,5.0,71,0.00,,,0.00,Wunderground v.1.15,2013-04-14 21:13:00,
2013-04-14 17:19:00,82.5,72.1,29.89,SSE,163,2.0,10.0,71,0.00,,,0.00,Wunderground v.1.15,2013-04-14 21:19:00,
2013-04-14 17:24:00,82.2,71.9,29.89,South,190,2.0,9.0,71,0.00,,,0.00,Wunderground v.1.15,2013-04-14 21:24:00,
2013-04-14 17:30:00,81.8,71.9,29.89,South,180,3.0,3.0,72,0.00,,,0.00,Wunderground v.1.15,2013-04-14 21:30:00,
2013-04-14 17:35:00,81.6,71.7,29.89,SSW,203,5.0,11.0,72,0.00,,,0.00,Wunderground v.1.15,2013-04-14 21:35:00,
2013-04-14 17:41:00,81.6,71.7,29.89,SSW,193,4.0,4.0,72,0.00,,,0.00,Wunderground v.1.15,2013-04-14 21:41:00,
2013-04-14 17:46:00,81.7,71.8,29.89,SSW,200,2.0,10.0,72,0.00,,,0.00,Wunderground v.1.15,2013-04-14 21:46:00,
2013-04-14 17:52:00,81.8,71.9,29.89,South,187,2.0,7.0,72,0.00,,,0.00,Wunderground v.1.15,2013-04-14 21:52:00,
2013-04-14 17:57:00,81.6,71.7,29.89,WSW,248,3.0,7.0,72,0.00,,,0.00,Wunderground v.1.15,2013-04-14 21:57:00,
2013-04-14 18:03:00,81.5,72.0,29.89,SE,137,4.0,22.0,73,0.00,,,0.00,Wunderground v.1.15,2013-04-14 22:03:00,
2013-04-14 18:08:00,81.1,71.6,29.89,South,190,4.0,22.0,73,0.00,,,0.00,Wunderground v.1.15,2013-04-14 22:08:00,
2013-04-14 18:14:00,81.0,71.9,29.89,SSW,213,2.0,3.0,74,0.00,,,0.00,Wunderground v.1.15,2013-04-14 22:14:00,
2013-04-14 18:20:00,81.2,72.1,29.89,SSW,208,1.0,13.0,74,0.00,,,0.00,Wunderground v.1.15,2013-04-14 22:20:00,
2013-04-14 18:25:00,81.1,71.6,29.89,South,190,2.0,13.0,73,0.00,,,0.00,Wunderground v.1.15,2013-04-14 22:25:00,
2013-04-14 18:32:00,80.7,71.6,29.89,South,190,2.0,6.0,74,0.00,,,0.00,Wunderground v.1.15,2013-04-14 22:32:00,
2013-04-14 18:37:00,80.5,71.8,29.90,SW,214,2.0,6.0,75,0.00,,,0.00,Wunderground v.1.15,2013-04-14 22:37:00,
2013-04-14 18:43:00,80.4,71.7,29.90,SSW,195,1.0,2.0,75,0.00,,,0.00,Wunderground v.1.15,2013-04-14 22:43:00,
2013-04-14 18:48:00,80.3,72.0,29.90,South,178,2.0,5.0,76,0.00,,,0.00,Wunderground v.1.15,2013-04-14 22:48:00,
2013-04-14 18:54:00,79.9,72.4,29.90,SW,223,2.0,2.0,78,0.00,,,0.00,Wunderground v.1.15,2013-04-14 22:54:00,
2013-04-14 18:59:00,79.7,72.6,29.89,SSW,194,1.0,5.0,79,0.00,,,0.00,Wunderground v.1.15,2013-04-14 22:59:00,
2013-04-14 19:05:00,79.4,72.3,29.90,SSW,199,1.0,13.0,79,0.00,,,0.00,Wunderground v.1.15,2013-04-14 23:05:00,
2013-04-14 19:11:00,79.0,72.3,29.90,SSW,196,1.0,3.0,80,0.00,,,0.00,Wunderground v.1.15,2013-04-14 23:11:00,
2013-04-14 19:17:00,78.8,72.5,29.90,SW,222,1.0,6.0,81,0.00,,,0.00,Wunderground v.1.15,2013-04-14 23:17:00,
2013-04-14 19:23:00,78.5,72.2,29.91,South,191,1.0,4.0,81,0.00,,,0.00,Wunderground v.1.15,2013-04-14 23:23:00,
2013-04-14 19:28:00,78.3,72.3,29.91,SW,219,1.0,4.0,82,0.00,,,0.00,Wunderground v.1.15,2013-04-14 23:28:00,
2013-04-14 19:34:00,78.1,72.5,29.91,South,170,0.0,0.0,83,0.00,,,0.00,Wunderground v.1.15,2013-04-14 23:34:00,
2013-04-14 20:59:00,75.9,71.4,29.98,NW,311,3.0,11.0,86,0.00,,,0.00,Wunderground v.1.15,2013-04-15 00:59:00,
2013-04-14 21:05:00,73.8,65.0,30.00,WNW,299,7.0,17.0,74,0.00,,,0.00,Wunderground v.1.15,2013-04-15 01:05:00,
2013-04-14 21:11:00,72.1,63.7,30.00,North,355,9.0,14.0,75,0.00,,,0.00,Wunderground v.1.15,2013-04-15 01:11:00,
2013-04-14 21:16:00,70.8,63.2,30.01,North,360,8.0,19.0,77,0.00,,,0.00,Wunderground v.1.15,2013-04-15 01:16:00,
2013-04-14 21:22:00,69.8,63.3,30.02,NW,305,6.0,13.0,80,0.00,,,0.00,Wunderground v.1.15,2013-04-15 01:22:00,
2013-04-14 21:28:00,68.5,63.5,30.02,West,268,4.0,13.0,84,0.44,,,0.06,Wunderground v.1.15,2013-04-15 01:28:00,
2013-04-14 21:33:00,67.7,63.7,30.02,NNW,329,2.0,3.0,87,0.22,,,0.08,Wunderground v.1.15,2013-04-15 01:33:00,
2013-04-14 21:38:00,67.2,63.5,30.02,NNW,335,2.0,17.0,88,0.09,,,0.08,Wunderground v.1.15,2013-04-15 01:38:00,
2013-04-14 21:43:00,67.0,63.6,30.02,NW,307,2.0,2.0,89,0.05,,,0.08,Wunderground v.1.15,2013-04-15 01:43:00,
2013-04-14 21:48:00,66.8,63.1,30.02,WNW,298,3.0,11.0,88,0.04,,,0.08,Wunderground v.1.15,2013-04-15 01:48:00,
2013-04-14 21:54:00,66.8,63.1,30.02,NNW,338,4.0,10.0,88,0.00,,,0.08,Wunderground v.1.15,2013-04-15 01:54:00,
2013-04-14 21:59:00,66.8,63.1,30.02,NNW,347,3.0,10.0,88,0.00,,,0.08,Wunderground v.1.15,2013-04-15 01:59:00,
2013-04-14 22:04:00,66.8,62.8,30.02,NNE,12,3.0,23.0,87,0.00,,,0.08,Wunderground v.1.15,2013-04-15 02:04:00,
2013-04-14 22:09:00,66.9,63.2,30.02,NW,313,2.0,23.0,88,0.00,,,0.08,Wunderground v.1.15,2013-04-15 02:09:00,
2013-04-14 22:14:00,66.9,62.9,30.02,NW,306,0.0,1.0,87,0.00,,,0.08,Wunderground v.1.15,2013-04-15 02:14:00,
2013-04-14 22:20:00,67.0,63.0,30.02,NNW,340,0.0,0.0,87,0.00,,,0.08,Wunderground v.1.15,2013-04-15 02:20:00,
2013-04-14 22:25:00,67.1,63.1,30.02,NW,309,1.0,4.0,87,0.00,,,0.08,Wunderground v.1.15,2013-04-15 02:25:00,
2013-04-14 22:30:00,67.4,63.1,30.02,North,355,1.0,1.0,86,0.00,,,0.08,Wunderground v.1.15,2013-04-15 02:30:00,
2013-04-14 22:35:00,67.6,62.9,30.02,NNW,348,2.0,3.0,85,0.00,,,0.08,Wunderground v.1.15,2013-04-15 02:35:00,
2013-04-14 22:41:00,67.7,62.7,30.02,North,9,1.0,4.0,84,0.00,,,0.08,Wunderground v.1.15,2013-04-15 02:41:00,
2013-04-14 22:47:00,68.0,63.0,30.02,North,355,2.0,4.0,84,0.00,,,0.08,Wunderground v.1.15,2013-04-15 02:47:00,
2013-04-14 22:52:00,68.1,62.7,30.02,NW,310,1.0,3.0,83,0.00,,,0.08,Wunderground v.1.15,2013-04-15 02:52:00,
2013-04-14 22:57:00,68.2,62.5,30.02,North,360,1.0,3.0,82,0.00,,,0.08,Wunderground v.1.15,2013-04-15 02:57:00,
2013-04-14 23:02:00,68.3,62.6,30.01,NNE,19,1.0,14.0,82,0.00,,,0.08,Wunderground v.1.15,2013-04-15 03:02:00,
2013-04-14 23:07:00,68.5,62.4,30.01,North,9,1.0,14.0,81,0.00,,,0.08,Wunderground v.1.15,2013-04-15 03:07:00,
2013-04-14 23:12:00,68.7,62.6,30.01,NNW,329,1.0,1.0,81,0.00,,,0.08,Wunderground v.1.15,2013-04-15 03:12:00,
2013-04-14 23:17:00,68.9,62.5,30.01,North,360,1.0,4.0,80,0.00,,,0.08,Wunderground v.1.15,2013-04-15 03:17:00,
2013-04-14 23:23:00,69.1,62.3,30.01,NNW,335,2.0,3.0,79,0.00,,,0.08,Wunderground v.1.15,2013-04-15 03:23:00,
2013-04-14 23:28:00,69.3,62.5,30.01,NE,42,2.0,9.0,79,0.00,,,0.08,Wunderground v.1.15,2013-04-15 03:28:00,
2013-04-14 23:33:00,69.4,62.2,30.01,NNW,346,2.0,5.0,78,0.00,,,0.08,Wunderground v.1.15,2013-04-15 03:33:00,
2013-04-14 23:38:00,69.5,62.3,30.00,NNE,14,2.0,5.0,78,0.00,,,0.08,Wunderground v.1.15,2013-04-15 03:38:00,
2013-04-14 23:43:00,69.5,62.3,30.00,NNW,342,1.0,6.0,78,0.00,,,0.08,Wunderground v.1.15,2013-04-15 03:43:00,
2013-04-14 23:48:00,69.7,61.8,30.00,North,5,2.0,6.0,76,0.00,,,0.08,Wunderground v.1.15,2013-04-15 03:48:00,
2013-04-14 23:53:00,69.8,61.9,30.00,NNW,344,1.0,5.0,76,0.00,,,0.08,Wunderground v.1.15,2013-04-15 03:53:00,
2013-04-14 23:58:00,69.9,62.0,29.99,NNW,340,0.0,5.0,76,0.00,,,0.08,Wunderground v.1.15,2013-04-15 03:58:00,